Shrivenham, United Kingdom
Current Conditions -  °F | °C
As of 4:03 PM on Saturday 25 Oct 2014 (Local Time) from EGVA Reporting Station
Broken Clouds Broken Clouds  
Wind Chill: 57°   Ceiling: 4100
Heat Index: 57°   Visibility: 6mi
Dew Point: 48°   Wind: 10mph
Humidity: 72%   Direction: 240°WSW
Pressure: 30.04"   Gusts: NA
Location:  51.6°N, 1.65°W
Report Text: EGVA 251503Z AUTO 24009KT 9999 BKN041 14/09 A3004 RMK AO2
Loading
Personal Weather Stations






























Interactive Weather Map
Tropical Storm Tracking
New forecast layout! Learn more

10-Day Weather Forecast

Advertisements
Track Severe Weather on mobile